Aviation Digital Data Service (ADDS)

Output produced by METARs form (1255 UTC 21 February 2018)
found at http://www.aviationweather.gov/adds/metars/
 
EIME 211230Z 00000KT 9999 FEW018 BKN040 08/04 Q1027
EIKN 211230Z 15006KT 110V190 9999 FEW006 06/02 Q1026 NOSIG
EICK 211230Z 14005KT 100V190 9999 SCT011 SCT018 07/04 Q1027 NOSIG
EIDL 211230Z 17009KT CAVOK 08/02 Q1027
EIDW 211230Z 13007KT 090V170 9999 FEW018 09/04 Q1028 NOSIG
EIKY 211230Z 19007KT 160V220 9999 FEW031 08/04 Q1027
EINN 211230Z 11005KT 9999 FEW007 06/03 Q1027 NOSIG
EISG 211230Z 16008KT 130V200 CAVOK 06/02 Q1027